KBHM/BHM METAR and TAF weather

Enter ICAO airport designator
Station Type Date Time Source
KBHM METAR 2019/10/21 01:53 UTC NOAA

KBHM 210153Z 00000KT 10SM SCT150 19/16 A2996 RMK AO2 SLP141 T01890161


Station Type Date Time Source
KBHM Decoded METAR 2019/10/21 01:53 UTC NOAA

BIRMINGHAM INT'L AIRPORT, AL, United States (KBHM) 33-34N 086-45W 197M
Oct 20, 2019 - 09:53 PM EDT / 2019.10.21 0153 UTC
Wind: Calm:0
Visibility: 10 mile(s):0
Sky conditions: partly cloudy
Temperature: 66.0 F (18.9 C)
Dew Point: 61.0 F (16.1 C)
Relative Humidity: 83%
Pressure (altimeter): 29.96 in. Hg (1014 hPa)
ob: KBHM 210153Z 00000KT 10SM SCT150 19/16 A2996 RMK AO2 SLP141 T01890161
cycle: 2

Station Type Date Time Source
KBHM TAF 2019/10/20 18:22 UTC NOAA

TAF KBHM 201720Z 2018/2118 33005KT P6SM SCT040
TEMPO 2018/2019 P6SM OVC007
FM210200 14003KT P6SM SCT040
FM211700 18007G14KT 4SM RA OVC020

Example: see airport list